createdAt,value
2022-08-11T00:01:50.096Z,1.55
2022-08-11T00:04:18.431Z,1.75
2022-08-11T00:06:45.486Z,1.60
2022-08-11T00:09:22.440Z,1.73
2022-08-11T00:11:49.892Z,1.88
2022-08-11T00:14:37.673Z,1.60
2022-08-11T00:17:12.017Z,1.80
2022-08-11T00:20:12.477Z,2.00
2022-08-11T00:22:29.797Z,1.70
2022-08-11T00:25:01.562Z,1.67
2022-08-11T00:27:35.856Z,1.70
2022-08-11T00:30:02.965Z,1.70
2022-08-11T00:32:30.086Z,1.65
2022-08-11T00:35:55.474Z,1.90
2022-08-11T00:37:45.850Z,2.22
2022-08-11T00:40:16.754Z,1.70
2022-08-11T00:42:43.183Z,1.83
2022-08-11T00:45:13.801Z,2.05
2022-08-11T00:47:46.269Z,1.80
2022-08-11T00:50:27.217Z,1.52
2022-08-11T00:52:53.623Z,1.90
2022-08-11T00:55:34.041Z,2.28
2022-08-11T00:58:00.478Z,2.10
2022-08-11T01:00:32.237Z,2.10
2022-08-11T01:03:18.294Z,2.20
2022-08-11T01:06:03.798Z,2.15
2022-08-11T01:08:53.071Z,2.55
2022-08-11T01:11:39.707Z,2.38
2022-08-11T01:14:33.662Z,2.10
2022-08-11T01:17:20.741Z,2.05
2022-08-11T01:20:46.492Z,2.22
2022-08-11T01:23:00.034Z,1.90
2022-08-11T01:25:57.478Z,1.92
2022-08-11T01:28:28.034Z,1.92
2022-08-11T01:30:55.092Z,1.85
2022-08-11T01:33:36.500Z,1.95
2022-08-11T01:36:36.279Z,2.10
2022-08-11T01:39:02.727Z,2.35
2022-08-11T01:41:59.982Z,2.13
2022-08-11T01:44:38.189Z,2.00
2022-08-11T01:47:52.891Z,2.25
2022-08-11T01:50:38.951Z,1.97
2022-08-11T01:53:05.401Z,2.17
2022-08-11T01:55:43.564Z,2.08
2022-08-11T01:58:16.872Z,2.63
2022-08-11T02:00:52.094Z,2.55
2022-08-11T02:03:27.273Z,2.10
2022-08-11T02:06:35.387Z,2.20
2022-08-11T02:09:01.793Z,2.33
2022-08-11T02:11:35.826Z,2.13
2022-08-11T02:14:13.041Z,2.15
2022-08-11T02:16:54.732Z,2.47
2022-08-11T02:19:45.332Z,2.30
2022-08-11T02:22:47.190Z,2.35
2022-08-11T02:25:31.370Z,2.15
2022-08-11T02:28:08.879Z,2.25
2022-08-11T02:30:38.448Z,2.00
2022-08-11T02:33:23.199Z,2.33
2022-08-11T02:35:55.612Z,2.40
2022-08-11T02:38:25.201Z,1.90
2022-08-11T02:41:48.873Z,2.30
2022-08-11T02:44:21.253Z,2.60
2022-08-11T02:46:50.212Z,2.38
2022-08-11T02:49:47.331Z,2.42
2022-08-11T02:52:29.272Z,2.38
2022-08-11T02:55:10.490Z,2.65
2022-08-11T02:58:03.330Z,2.10
2022-08-11T03:00:30.871Z,2.50
2022-08-11T03:05:32.512Z,2.50
2022-08-11T03:08:08.244Z,2.50
2022-08-11T03:11:12.419Z,2.30
2022-08-11T03:14:00.382Z,2.22
2022-08-11T03:16:48.194Z,2.13
2022-08-11T03:19:26.779Z,2.50
2022-08-11T03:22:03.617Z,2.30
2022-08-11T03:24:51.618Z,2.03
2022-08-11T03:27:33.133Z,2.08
2022-08-11T03:30:08.247Z,2.35
2022-08-11T03:32:37.769Z,2.42
2022-08-11T03:35:05.237Z,2.42
2022-08-11T03:37:57.765Z,2.00
2022-08-11T03:40:42.933Z,2.60
2022-08-11T03:43:21.501Z,2.33
2022-08-11T03:46:26.857Z,2.22
2022-08-11T03:49:05.108Z,2.90
2022-08-11T03:51:54.547Z,2.33
2022-08-11T03:54:33.158Z,2.40
2022-08-11T03:57:18.112Z,2.45
2022-08-11T03:59:51.288Z,2.50
2022-08-11T04:02:33.005Z,2.55
2022-08-11T04:05:11.577Z,2.40
2022-08-11T04:07:56.902Z,2.30
2022-08-11T04:10:29.384Z,2.50
2022-08-11T04:13:14.572Z,2.38
2022-08-11T04:16:11.694Z,2.40
2022-08-11T04:18:45.165Z,2.67
2022-08-11T04:21:24.815Z,2.30
2022-08-11T04:24:34.847Z,2.25
2022-08-11T04:26:59.071Z,2.40
2022-08-11T04:30:03.345Z,2.60
2022-08-11T04:32:42.919Z,2.30
2022-08-11T04:35:13.850Z,2.25
2022-08-11T04:37:53.214Z,2.50
2022-08-11T04:40:28.899Z,2.40
2022-08-11T04:43:22.142Z,2.72
2022-08-11T04:46:07.266Z,2.60
2022-08-11T04:48:55.425Z,2.65
2022-08-11T04:51:59.342Z,2.50
2022-08-11T04:54:50.528Z,3.10
2022-08-11T04:57:55.605Z,2.45
2022-08-11T05:00:44.006Z,2.63
2022-08-11T05:03:27.890Z,2.40
2022-08-11T05:05:57.629Z,2.50
2022-08-11T05:08:24.385Z,2.70
2022-08-11T05:11:09.265Z,2.85
2022-08-11T05:14:00.308Z,3.20
2022-08-11T05:17:08.016Z,3.13
2022-08-11T05:19:53.699Z,2.97
2022-08-11T05:22:39.013Z,2.67
2022-08-11T05:26:43.030Z,3.10
2022-08-11T05:28:33.777Z,3.13
2022-08-11T05:31:21.594Z,3.10
2022-08-11T05:34:08.671Z,3.00
2022-08-11T05:36:42.151Z,2.92
2022-08-11T05:39:36.408Z,3.17
2022-08-11T05:42:30.078Z,3.00
2022-08-11T05:45:23.833Z,3.05
2022-08-11T05:48:08.766Z,3.53
2022-08-11T05:50:54.136Z,3.60
2022-08-11T05:53:46.230Z,3.85
2022-08-11T05:56:20.106Z,4.05
2022-08-11T05:58:53.605Z,4.35
2022-08-11T06:01:33.202Z,3.95
2022-08-11T06:04:17.174Z,3.90
2022-08-11T06:06:51.362Z,3.83
2022-08-11T06:09:22.530Z,3.70
2022-08-11T06:11:49.014Z,4.07
2022-08-11T06:14:15.862Z,3.83
2022-08-11T06:16:42.942Z,3.78
2022-08-11T06:19:10.454Z,3.83
2022-08-11T06:24:12.878Z,4.10
2022-08-11T06:27:10.746Z,3.50
2022-08-11T06:29:38.230Z,3.75
2022-08-11T06:32:19.868Z,3.75
2022-08-11T06:35:05.050Z,4.22
2022-08-11T06:37:36.470Z,3.95
2022-08-11T06:40:11.806Z,4.38
2022-08-11T06:42:53.504Z,4.22
2022-08-11T06:45:19.945Z,4.53
2022-08-11T06:47:49.771Z,3.90
2022-08-11T06:50:36.283Z,4.28
2022-08-11T06:53:05.413Z,4.38
2022-08-11T06:55:55.494Z,3.97
2022-08-11T06:58:46.551Z,3.65
2022-08-11T07:01:14.760Z,3.55
2022-08-11T07:03:45.290Z,3.50
2022-08-11T07:06:35.957Z,3.60
2022-08-11T07:10:03.182Z,3.38
2022-08-11T07:13:44.711Z,3.20
2022-08-11T07:16:13.138Z,3.17
2022-08-11T07:18:59.634Z,3.38
2022-08-11T07:22:00.763Z,2.90
2022-08-11T07:24:59.561Z,3.50
2022-08-11T07:27:49.711Z,3.22
2022-08-11T07:30:17.293Z,3.45
2022-08-11T07:32:50.594Z,3.00
2022-08-11T07:35:18.157Z,2.90
2022-08-11T07:37:47.865Z,3.22
2022-08-11T07:40:15.995Z,3.15
2022-08-11T07:42:46.565Z,2.78
2022-08-11T07:45:31.735Z,2.85
2022-08-11T07:48:17.007Z,2.70
2022-08-11T07:51:02.813Z,3.13
2022-08-11T07:53:30.584Z,2.90
2022-08-11T07:55:58.219Z,2.85
2022-08-11T07:58:45.600Z,2.80
2022-08-11T08:01:41.346Z,2.75
2022-08-11T08:04:27.982Z,2.47
2022-08-11T08:07:13.499Z,2.30
2022-08-11T08:09:59.293Z,2.30
2022-08-11T08:12:44.911Z,2.10
2022-08-11T08:15:31.180Z,2.13
2022-08-11T08:18:10.098Z,1.60
2022-08-11T08:20:46.362Z,1.83
2022-08-11T08:23:13.205Z,1.70
2022-08-11T08:25:41.273Z,1.60
2022-08-11T08:28:10.229Z,2.10
2022-08-11T08:30:51.124Z,1.70
2022-08-11T08:33:22.294Z,1.50
2022-08-11T08:36:14.709Z,1.75
2022-08-11T08:38:42.029Z,2.00
2022-08-11T08:41:09.061Z,3.08
2022-08-11T08:43:49.218Z,2.00
2022-08-11T08:46:17.570Z,1.52
2022-08-11T08:48:46.207Z,1.80
2022-08-11T08:52:00.919Z,1.50
2022-08-11T08:54:20.228Z,1.55
2022-08-11T08:56:47.097Z,1.80
2022-08-11T08:59:14.647Z,1.42
2022-08-11T09:01:43.500Z,1.33
2022-08-11T09:04:12.266Z,1.50
2022-08-11T09:06:43.003Z,1.90
2022-08-11T09:09:12.187Z,1.50
2022-08-11T09:11:53.349Z,1.30
2022-08-11T09:14:24.109Z,1.08
2022-08-11T09:16:51.871Z,1.30
2022-08-11T09:19:19.673Z,1.30
2022-08-11T09:22:07.028Z,1.30
2022-08-11T09:24:53.112Z,1.40
2022-08-11T09:27:20.109Z,1.42
2022-08-11T09:29:47.157Z,1.00
2022-08-11T09:32:14.988Z,1.60
2022-08-11T09:34:41.476Z,1.05
2022-08-11T09:37:53.288Z,1.02
2022-08-11T09:40:30.036Z,1.10
2022-08-11T09:43:20.763Z,1.13
2022-08-11T09:45:51.598Z,1.35
2022-08-11T09:48:25.561Z,1.10
2022-08-11T09:50:53.305Z,1.20
2022-08-11T09:53:36.145Z,1.30
2022-08-11T09:56:28.635Z,1.23
2022-08-11T09:58:55.271Z,1.17
2022-08-11T10:01:28.919Z,1.08
2022-08-11T10:03:58.136Z,1.20
2022-08-11T10:06:44.230Z,1.00
2022-08-11T10:09:16.367Z,1.00
2022-08-11T10:11:43.471Z,1.35
2022-08-11T10:14:46.666Z,0.98
2022-08-11T10:17:14.734Z,0.90
2022-08-11T10:19:42.218Z,1.20
2022-08-11T10:22:27.720Z,1.10
2022-08-11T10:25:14.542Z,1.23
2022-08-11T10:28:16.850Z,0.75
2022-08-11T10:30:51.814Z,1.13
2022-08-11T10:33:42.861Z,1.15
2022-08-11T10:36:24.410Z,1.23
2022-08-11T10:38:52.278Z,1.08
2022-08-11T10:41:38.549Z,1.10
2022-08-11T10:44:25.141Z,1.33
2022-08-11T10:47:10.697Z,1.20
2022-08-11T10:49:37.398Z,1.20
2022-08-11T10:52:22.566Z,1.33
2022-08-11T10:55:07.257Z,1.30
2022-08-11T10:58:04.605Z,1.17
2022-08-11T11:00:31.713Z,1.15
2022-08-11T11:03:23.230Z,1.20
2022-08-11T11:06:28.964Z,1.00
2022-08-11T11:08:57.520Z,1.40
2022-08-11T11:11:49.132Z,0.95
2022-08-11T11:14:35.553Z,1.30
2022-08-11T11:17:15.749Z,1.00
2022-08-11T11:19:42.722Z,1.05
2022-08-11T11:22:29.024Z,1.15
2022-08-11T11:25:03.743Z,1.33
2022-08-11T11:27:46.684Z,1.02
2022-08-11T11:30:15.241Z,0.90
2022-08-11T11:32:50.080Z,0.98
2022-08-11T11:35:16.492Z,1.13
2022-08-11T11:37:56.159Z,1.00
2022-08-11T11:40:32.235Z,0.90
2022-08-11T11:42:59.380Z,0.70
2022-08-11T11:45:25.892Z,0.70
2022-08-11T11:47:54.174Z,0.80
2022-08-11T11:50:25.355Z,0.98
2022-08-11T11:52:59.886Z,0.80
2022-08-11T11:55:26.936Z,1.00
2022-08-11T11:58:17.882Z,0.70
2022-08-11T12:01:04.968Z,0.80
2022-08-11T12:03:32.237Z,0.80
2022-08-11T12:05:58.817Z,0.95
2022-08-11T12:08:27.914Z,0.80
2022-08-11T12:11:14.691Z,0.68
2022-08-11T12:13:42.707Z,0.95
2022-08-11T12:16:35.070Z,0.80
2022-08-11T12:19:00.710Z,1.00
2022-08-11T12:21:28.084Z,1.02
2022-08-11T12:24:14.344Z,0.77
2022-08-11T12:27:15.152Z,0.73
2022-08-11T12:29:36.656Z,0.95
2022-08-11T12:32:10.624Z,0.90
2022-08-11T12:34:37.156Z,0.88
2022-08-11T12:37:06.890Z,0.60
2022-08-11T12:40:17.007Z,0.80
2022-08-11T12:43:08.286Z,0.80
2022-08-11T12:45:48.615Z,0.95
2022-08-11T12:49:01.069Z,0.70
2022-08-11T12:52:00.699Z,1.30
2022-08-11T12:54:33.930Z,0.65
2022-08-11T12:57:27.585Z,0.80
2022-08-11T13:00:26.573Z,0.98
2022-08-11T13:03:12.819Z,1.02
2022-08-11T13:05:44.937Z,1.00
2022-08-11T13:08:12.142Z,0.90
2022-08-11T13:10:57.346Z,1.00
2022-08-11T13:13:52.694Z,1.05
2022-08-11T13:16:11.098Z,0.70
2022-08-11T13:18:39.598Z,0.90
2022-08-11T13:21:06.171Z,1.02
2022-08-11T13:23:33.056Z,1.00
2022-08-11T13:25:59.601Z,0.90
2022-08-11T13:28:26.111Z,0.85
2022-08-11T13:31:11.820Z,1.00
2022-08-11T13:33:49.876Z,1.13
2022-08-11T13:36:19.355Z,0.80
2022-08-11T13:38:49.949Z,0.82
2022-08-11T13:41:35.965Z,1.00
2022-08-11T13:44:02.741Z,1.13
2022-08-11T13:46:29.512Z,0.98
2022-08-11T13:49:00.935Z,0.98
2022-08-11T13:51:34.715Z,1.10
2022-08-11T13:54:05.973Z,1.17
2022-08-11T13:56:33.248Z,1.02
2022-08-11T13:59:01.191Z,1.00
2022-08-11T14:02:19.353Z,0.90
2022-08-11T14:04:31.118Z,1.00
2022-08-11T14:07:00.791Z,1.05
2022-08-11T14:09:30.147Z,0.80
2022-08-11T14:12:21.232Z,1.13
2022-08-11T14:15:02.210Z,0.70
2022-08-11T14:17:38.352Z,1.00
2022-08-11T14:20:38.368Z,0.98
2022-08-11T14:23:03.136Z,0.90
2022-08-11T14:26:01.141Z,1.00
2022-08-11T14:28:31.606Z,0.70
2022-08-11T14:31:02.061Z,1.02
2022-08-11T14:33:58.309Z,0.70
2022-08-11T14:36:15.658Z,0.95
2022-08-11T14:38:42.265Z,0.90
2022-08-11T14:41:27.678Z,0.90
2022-08-11T14:44:14.719Z,1.10
2022-08-11T14:47:01.321Z,0.82
2022-08-11T14:49:28.359Z,0.98
2022-08-11T14:51:56.028Z,0.82
2022-08-11T14:54:45.561Z,1.15
2022-08-11T14:57:12.475Z,0.95
2022-08-11T14:59:39.227Z,0.95
2022-08-11T15:02:24.405Z,0.70
2022-08-11T15:04:51.731Z,0.95
2022-08-11T15:07:18.928Z,0.70
2022-08-11T15:10:11.622Z,0.68
2022-08-11T15:12:33.635Z,0.82
2022-08-11T15:15:19.899Z,1.00
2022-08-11T15:17:48.907Z,0.70
2022-08-11T15:20:35.849Z,0.77
2022-08-11T15:23:21.098Z,1.00
2022-08-11T15:25:51.054Z,0.70
2022-08-11T15:28:37.685Z,0.80
2022-08-11T15:31:49.129Z,0.80
2022-08-11T15:34:35.819Z,0.80
2022-08-11T15:37:28.023Z,0.90
2022-08-11T15:40:31.978Z,0.70
2022-08-11T15:43:29.297Z,0.90
2022-08-11T15:46:02.421Z,0.70
2022-08-11T15:48:34.367Z,0.90
2022-08-11T15:51:06.043Z,0.90
2022-08-11T15:53:38.195Z,0.80
2022-08-11T15:56:05.777Z,0.75
2022-08-11T15:59:10.843Z,0.80
2022-08-11T16:02:00.578Z,0.70
2022-08-11T16:04:30.149Z,0.73
2022-08-11T16:07:01.182Z,0.90
2022-08-11T16:09:47.033Z,0.60
2022-08-11T16:13:04.690Z,0.75
2022-08-11T16:15:58.491Z,0.80
2022-08-11T16:18:40.633Z,0.90
2022-08-11T16:21:11.708Z,0.95
2022-08-11T16:23:59.696Z,1.00
2022-08-11T16:27:08.098Z,0.80
2022-08-11T16:29:13.640Z,0.90
2022-08-11T16:31:41.913Z,0.77
2022-08-11T16:34:32.307Z,1.10
2022-08-11T16:37:18.162Z,1.20
2022-08-11T16:39:48.279Z,1.00
2022-08-11T16:43:05.349Z,0.88
2022-08-11T16:45:41.816Z,1.10
2022-08-11T16:48:36.635Z,1.08
2022-08-11T16:50:55.942Z,1.15
2022-08-11T16:53:22.743Z,1.27
2022-08-11T16:56:09.571Z,1.17
2022-08-11T16:58:56.332Z,1.20
2022-08-11T17:01:24.605Z,1.17
2022-08-11T17:04:12.525Z,1.08
2022-08-11T17:06:59.806Z,1.10
2022-08-11T17:09:45.723Z,1.15
2022-08-11T17:15:00.613Z,1.10
2022-08-11T17:17:30.764Z,1.17
2022-08-11T17:20:41.399Z,1.35
2022-08-11T17:23:04.114Z,1.00
2022-08-11T17:26:03.305Z,1.20
2022-08-11T17:28:21.466Z,1.30
2022-08-11T17:31:22.359Z,1.48
2022-08-11T17:34:09.033Z,1.52
2022-08-11T17:36:37.760Z,1.50
2022-08-11T17:39:09.043Z,1.83
2022-08-11T17:41:54.050Z,2.10
2022-08-11T17:44:39.348Z,1.77
2022-08-11T17:47:24.621Z,2.17
2022-08-11T17:49:52.998Z,2.13
2022-08-11T17:52:39.000Z,2.20
2022-08-11T17:55:52.451Z,2.20
2022-08-11T17:58:30.266Z,2.10
2022-08-11T18:00:57.676Z,1.90
2022-08-11T18:03:39.268Z,1.92
2022-08-11T18:06:06.706Z,1.90
2022-08-11T18:09:01.769Z,1.63
2022-08-11T18:12:06.061Z,1.90
2022-08-11T18:14:55.550Z,1.52
2022-08-11T18:17:40.816Z,1.88
2022-08-11T18:20:26.345Z,1.90
2022-08-11T18:23:12.684Z,1.23
2022-08-11T18:25:59.827Z,1.38
2022-08-11T18:28:47.950Z,1.60
2022-08-11T18:31:33.823Z,1.55
2022-08-11T18:34:20.968Z,1.40
2022-08-11T18:37:32.167Z,1.65
2022-08-11T18:40:18.922Z,1.58
2022-08-11T18:43:05.907Z,1.45
2022-08-11T18:45:56.481Z,1.60
2022-08-11T18:48:54.038Z,1.38
2022-08-11T18:51:41.098Z,1.20
2022-08-11T18:54:27.490Z,1.40
2022-08-11T18:57:14.933Z,1.15
2022-08-11T19:00:01.448Z,1.33
2022-08-11T19:02:49.518Z,2.10
2022-08-11T19:06:08.361Z,1.75
2022-08-11T19:08:42.350Z,1.77
2022-08-11T19:11:28.157Z,1.40
2022-08-11T19:14:13.903Z,1.75
2022-08-11T19:16:59.983Z,1.50
2022-08-11T19:19:47.765Z,1.35
2022-08-11T19:22:34.785Z,1.50
2022-08-11T19:25:25.189Z,1.40
2022-08-11T19:28:11.294Z,1.90
2022-08-11T19:30:56.619Z,1.70
2022-08-11T19:34:02.728Z,1.58
2022-08-11T19:36:47.530Z,1.65
2022-08-11T19:39:32.824Z,1.65
2022-08-11T19:42:18.588Z,1.55
2022-08-11T19:45:03.987Z,1.50
2022-08-11T19:47:49.333Z,1.60
2022-08-11T19:50:34.771Z,1.40
2022-08-11T19:53:22.922Z,1.63
2022-08-11T19:56:09.248Z,1.75
2022-08-11T20:01:39.531Z,1.55
2022-08-11T20:04:44.261Z,1.60
2022-08-11T20:07:32.099Z,1.70
2022-08-11T20:10:18.334Z,1.85
2022-08-11T20:13:04.265Z,1.60
2022-08-11T20:15:50.056Z,1.58
2022-08-11T20:18:35.745Z,2.03
2022-08-11T20:21:25.795Z,1.95
2022-08-11T20:24:18.893Z,2.25
2022-08-11T20:27:04.596Z,1.70
2022-08-11T20:29:50.261Z,2.13
2022-08-11T20:32:35.633Z,2.07
2022-08-11T20:35:21.468Z,2.25
2022-08-11T20:38:10.570Z,1.77
2022-08-11T20:40:59.149Z,1.92
2022-08-11T20:44:08.405Z,2.00
2022-08-11T20:46:49.178Z,1.80
2022-08-11T20:49:44.259Z,2.00
2022-08-11T20:52:33.440Z,2.22
2022-08-11T20:55:25.708Z,2.22
2022-08-11T20:58:14.455Z,2.35
2022-08-11T21:01:04.625Z,2.15
2022-08-11T21:03:59.573Z,2.10
2022-08-11T21:06:47.409Z,2.30
2022-08-11T21:12:37.690Z,2.40
2022-08-11T21:15:46.935Z,2.28
2022-08-11T21:18:32.235Z,2.40
2022-08-11T21:21:19.269Z,2.10
2022-08-11T21:24:04.667Z,2.30
2022-08-11T21:26:51.505Z,2.65
2022-08-11T21:29:37.320Z,2.45
2022-08-11T21:32:22.723Z,2.30
2022-08-11T21:35:08.426Z,2.30
2022-08-11T21:37:53.906Z,2.70
2022-08-11T21:40:40.767Z,2.60
2022-08-11T21:43:27.105Z,2.50
2022-08-11T21:46:13.070Z,2.60
2022-08-11T21:48:58.863Z,2.72
2022-08-11T21:51:44.674Z,2.63
2022-08-11T21:54:30.310Z,2.53
2022-08-11T21:57:16.620Z,2.63
2022-08-11T22:00:12.613Z,2.78
2022-08-11T22:02:58.402Z,2.30
2022-08-11T22:05:44.998Z,2.83
2022-08-11T22:08:30.277Z,2.20
2022-08-11T22:11:16.302Z,2.92
2022-08-11T22:14:17.727Z,2.50
2022-08-11T22:17:02.726Z,2.50
2022-08-11T22:19:47.919Z,3.17
2022-08-11T22:22:32.711Z,3.00
2022-08-11T22:25:18.801Z,3.90
2022-08-11T22:28:05.816Z,3.67
2022-08-11T22:30:51.552Z,4.70
2022-08-11T22:33:36.943Z,3.92
2022-08-11T22:36:29.361Z,3.53
2022-08-11T22:41:59.372Z,3.50
2022-08-11T22:44:44.402Z,3.65
2022-08-11T22:47:38.254Z,3.83
2022-08-11T22:50:26.096Z,3.63
2022-08-11T22:53:11.396Z,3.58
2022-08-11T22:55:58.237Z,3.60
2022-08-11T23:01:28.049Z,3.55
2022-08-11T23:04:15.221Z,3.20
2022-08-11T23:07:00.661Z,3.58
2022-08-11T23:09:45.662Z,3.60
2022-08-11T23:12:31.209Z,3.45
2022-08-11T23:15:16.335Z,3.67
2022-08-11T23:18:01.164Z,3.80
2022-08-11T23:20:50.059Z,3.33
2022-08-11T23:23:41.985Z,3.60
2022-08-11T23:26:29.947Z,3.20
2022-08-11T23:29:16.206Z,3.42
2022-08-11T23:32:01.624Z,3.78
2022-08-11T23:35:04.555Z,3.17
2022-08-11T23:37:59.885Z,3.05
2022-08-11T23:40:45.194Z,3.50
2022-08-11T23:43:37.702Z,3.58
2022-08-11T23:46:24.140Z,3.50
2022-08-11T23:49:11.694Z,3.00
2022-08-11T23:51:58.412Z,3.17
2022-08-11T23:54:44.313Z,3.10
2022-08-11T23:57:29.727Z,3.35
